Time;durP1;ratioP1;P1;durP2;ratioP2;P2;SDS_P1;SDS_P2;PMS_P1;PMS_P2;Temp;Humidity;BMP_temperature;BMP_pressure;BME280_temperature;BME280_humidity;BME280_pressure;Samples;Min_cycle;Max_cycle;Signal;HPM_P1;HPM_P2
2022/05/27 00:01:04;;;;;;;9.57;6.80;;;;;;;13.88;97.92;101440.22;5013846;28;20770;-71
2022/05/27 00:03:30;;;;;;;9.60;7.47;;;;;;;13.88;97.66;101442.78;5012817;28;20210;-71
2022/05/27 00:05:55;;;;;;;9.53;6.70;;;;;;;13.86;97.97;101443.63;5031661;28;20225;-72
2022/05/27 00:08:22;;;;;;;10.37;7.00;;;;;;;13.83;97.56;101443.56;5030975;28;20187;-71
2022/05/27 00:10:47;;;;;;;11.50;6.33;;;;;;;13.85;97.37;101439.31;5031357;28;20194;-71
2022/05/27 00:13:13;;;;;;;11.70;6.77;;;;;;;13.86;97.28;101439.31;5031115;28;20259;-71
2022/05/27 00:15:38;;;;;;;8.90;5.77;;;;;;;13.87;96.47;101437.63;5013159;28;20567;-71
2022/05/27 00:18:03;;;;;;;10.27;5.70;;;;;;;13.91;96.21;101426.53;5031423;28;21036;-71
2022/05/27 00:20:29;;;;;;;8.80;6.17;;;;;;;13.92;95.97;101417.94;5030867;28;20193;-72
2022/05/27 00:22:54;;;;;;;10.83;5.83;;;;;;;13.93;95.92;101411.94;5013903;28;20174;-71
2022/05/27 00:25:19;;;;;;;7.10;5.10;;;;;;;13.97;95.89;101409.47;5030586;28;20214;-71
2022/05/27 00:27:46;;;;;;;9.93;5.87;;;;;;;13.98;95.70;101408.63;5031407;28;20238;-71
2022/05/27 00:30:12;;;;;;;11.07;5.93;;;;;;;13.98;96.42;101405.16;5030772;28;20248;-71
2022/05/27 00:32:39;;;;;;;8.80;5.20;;;;;;;14.00;96.11;101409.47;5031591;28;20241;-71
2022/05/27 00:35:05;;;;;;;9.20;5.40;;;;;;;14.03;95.94;101403.50;5031231;28;20194;-71
2022/05/27 00:37:31;;;;;;;11.30;5.33;;;;;;;14.07;95.67;101413.91;5012794;28;20206;-71
2022/05/27 00:39:56;;;;;;;13.17;5.60;;;;;;;14.04;95.82;101413.00;5030883;28;20268;-71
2022/05/27 00:42:22;;;;;;;7.37;5.60;;;;;;;14.05;96.41;101409.56;5030621;28;20189;-71
2022/05/27 00:44:47;;;;;;;10.67;5.83;;;;;;;14.05;95.91;101417.28;5030942;28;20194;-71
2022/05/27 00:47:18;;;;;;;9.20;5.53;;;;;;;14.05;96.25;101409.56;5030428;28;20214;-71
2022/05/27 00:49:53;;;;;;;9.70;5.63;;;;;;;14.05;96.38;101409.56;5011234;28;20198;-71
2022/05/27 00:52:21;;;;;;;7.60;5.23;;;;;;;14.02;95.86;101415.53;5024465;28;20210;-71
2022/05/27 00:54:47;;;;;;;9.17;5.83;;;;;;;14.02;95.89;101410.38;5030149;28;20190;-71
2022/05/27 00:57:24;;;;;;;9.40;5.77;;;;;;;14.02;95.72;101405.25;5030610;28;20251;-72
2022/05/27 00:59:54;;;;;;;11.03;6.30;;;;;;;14.07;95.40;101402.72;5030360;28;20186;-71
2022/05/27 01:02:20;;;;;;;10.30;5.70;;;;;;;14.07;95.61;101407.88;5030758;28;20186;-71
2022/05/27 01:04:47;;;;;;;11.13;5.93;;;;;;;14.08;95.80;101423.34;5012417;28;20343;-71
2022/05/27 01:07:13;;;;;;;10.77;5.80;;;;;;;14.09;95.73;101408.78;5030671;28;20205;-71
2022/05/27 01:09:42;;;;;;;9.77;6.30;;;;;;;14.11;95.90;101409.66;5029478;28;20619;-71
2022/05/27 01:12:50;;;;;;;10.43;6.70;;;;;;;14.11;95.87;101407.94;5030259;28;20235;-71
2022/05/27 01:15:41;;;;;;;9.43;6.20;;;;;;;14.11;95.62;101422.53;5012108;28;20376;-71
2022/05/27 01:20:18;;;;;;;11.47;6.40;;;;;;;14.14;95.02;101420.00;5012426;28;20602;-71
2022/05/27 01:21:19;;;;;;;12.60;5.93;;;;;;;14.15;95.19;101412.31;5029721;28;20205;-71
2022/05/27 01:24:31;;;;;;;14.70;6.03;;;;;;;14.17;95.13;101402.88;5030399;28;20167;-71
2022/05/27 01:27:41;;;;;;;12.03;5.50;;;;;;;14.20;94.55;101404.63;5027062;28;20210;-71
2022/05/27 01:30:48;;;;;;;9.70;5.70;;;;;;;14.21;94.73;101408.97;4997970;28;20225;-71
2022/05/27 01:33:22;;;;;;;12.60;6.17;;;;;;;14.22;94.36;101410.72;5020702;28;20222;-71
2022/05/27 01:36:17;;;;;;;11.47;5.57;;;;;;;14.23;93.74;101408.13;5012256;28;20183;-71
2022/05/27 01:38:48;;;;;;;9.37;5.67;;;;;;;14.25;93.91;101411.63;5027948;28;20260;-71
2022/05/27 01:41:34;;;;;;;9.93;5.43;;;;;;;14.23;93.40;101408.13;5011724;28;20186;-71
2022/05/27 01:44:11;;;;;;;9.00;4.57;;;;;;;14.19;92.62;101397.75;5011609;28;20194;-71
2022/05/27 01:46:44;;;;;;;12.13;5.00;;;;;;;14.20;92.71;101402.06;5029912;28;20586;-72
2022/05/27 01:49:30;;;;;;;11.13;4.27;;;;;;;14.17;92.42;101410.59;5028446;28;20201;-72
2022/05/27 01:52:08;;;;;;;11.17;4.00;;;;;;;14.15;91.80;101404.56;5012398;28;20570;-71
2022/05/27 01:54:45;;;;;;;10.63;4.13;;;;;;;14.14;90.87;101395.09;5011716;28;20570;-71
2022/05/27 01:57:34;;;;;;;9.83;3.70;;;;;;;14.15;91.00;101406.28;5012278;28;20281;-71
2022/05/27 02:00:24;;;;;;;9.77;3.80;;;;;;;14.11;91.59;101407.94;5029044;28;20194;-71
2022/05/27 02:03:09;;;;;;;11.57;3.70;;;;;;;14.06;90.55;101406.13;5029603;28;20265;-71
2022/05/27 02:05:38;;;;;;;9.60;3.37;;;;;;;14.01;89.46;101382.91;5012261;28;20238;-71
2022/05/27 02:08:08;;;;;;;11.40;3.20;;;;;;;14.02;88.89;101401.78;5029481;28;20194;-71
2022/05/27 02:10:44;;;;;;;13.00;3.00;;;;;;;13.98;87.22;101400.00;5028982;28;20197;-71
2022/05/27 02:13:21;;;;;;;11.97;3.30;;;;;;;13.95;87.28;101405.97;5011482;28;20210;-71
2022/05/27 02:15:51;;;;;;;9.23;2.90;;;;;;;13.92;87.36;101387.94;5029419;28;20194;-71
2022/05/27 02:18:29;;;;;;;7.77;2.83;;;;;;;13.91;87.13;101409.34;5028670;28;20183;-71
2022/05/27 02:21:01;;;;;;;11.90;3.33;;;;;;;13.89;87.25;101415.31;5026651;28;20499;-71
2022/05/27 02:24:10;;;;;;;9.47;2.77;;;;;;;13.84;86.50;101420.41;5028903;28;20681;-71
2022/05/27 02:26:47;;;;;;;9.37;2.60;;;;;;;13.83;86.58;101425.53;5028818;28;20216;-71
2022/05/27 02:29:17;;;;;;;11.90;3.07;;;;;;;13.78;85.91;101430.63;5028685;28;20186;-71
2022/05/27 02:31:49;;;;;;;10.13;3.10;;;;;;;13.75;85.38;101421.97;5011271;28;20255;-71
2022/05/27 02:37:19;;;;;;;13.80;3.37;;;;;;;13.70;84.80;101441.63;5029136;28;20213;-71
2022/05/27 02:39:45;;;;;;;15.97;3.03;;;;;;;13.68;84.35;101448.47;5028431;28;20683;-71
2022/05/27 02:42:32;;;;;;;12.33;3.20;;;;;;;13.63;84.72;101452.66;5011281;28;20304;-71
2022/05/27 02:45:09;;;;;;;14.53;3.20;;;;;;;13.60;84.86;101444.88;5010965;28;20265;-71
2022/05/27 02:48:08;;;;;;;14.10;3.93;;;;;;;13.56;83.11;101440.53;5028780;28;20768;-71
2022/05/27 02:50:41;;;;;;;9.63;2.83;;;;;;;13.53;83.48;101431.03;4989314;28;20202;-71
2022/05/27 02:53:20;;;;;;;10.40;2.90;;;;;;;13.51;82.68;101435.31;5033098;28;20594;-71
2022/05/27 02:56:13;;;;;;;9.47;2.30;;;;;;;13.46;81.85;101434.38;5032784;28;20186;-71
2022/05/27 02:58:39;;;;;;;10.83;2.63;;;;;;;13.39;80.84;101427.38;5033195;28;20183;-72
2022/05/27 03:01:05;;;;;;;12.90;2.90;;;;;;;13.32;81.95;101435.84;5032508;28;20203;-72
2022/05/27 03:03:31;;;;;;;12.63;2.80;;;;;;;13.29;82.74;101438.34;5015904;28;20225;-71
2022/05/27 03:06:09;;;;;;;12.37;3.10;;;;;;;13.23;82.87;101443.41;5015610;28;20178;-71
2022/05/27 03:09:15;;;;;;;12.33;3.20;;;;;;;13.22;83.26;101443.34;5032994;28;20856;-72
2022/05/27 03:11:43;;;;;;;11.07;2.87;;;;;;;13.19;83.37;101446.75;4994103;28;20556;-71
2022/05/27 03:14:42;;;;;;;10.50;3.03;;;;;;;13.14;83.15;101448.38;5019785;28;20324;-71
2022/05/27 03:17:23;;;;;;;10.83;2.67;;;;;;;13.14;83.88;101443.22;5032566;28;20210;-71
2022/05/27 03:20:20;;;;;;;13.50;2.90;;;;;;;13.09;84.39;101452.56;5014365;28;20190;-71
2022/05/27 03:23:06;;;;;;;14.43;3.07;;;;;;;13.04;84.61;101441.31;5007841;28;20194;-71
2022/05/27 03:25:36;;;;;;;11.67;3.30;;;;;;;13.04;84.38;101443.91;5014542;28;20187;-71
2022/05/27 03:28:20;;;;;;;14.97;3.17;;;;;;;13.04;83.78;101443.00;4997985;28;20214;-71
2022/05/27 03:31:12;;;;;;;11.43;3.00;;;;;;;13.02;83.50;101450.69;5032047;28;20247;-71
2022/05/27 03:33:52;;;;;;;10.87;3.23;;;;;;;13.03;83.33;101456.72;5032427;28;20206;-71
2022/05/27 03:36:23;;;;;;;12.33;3.17;;;;;;;13.00;84.04;101457.53;5031646;28;20222;-71
2022/05/27 03:39:01;;;;;;;15.00;2.97;;;;;;;13.00;83.83;101452.38;5032278;28;20562;-71
2022/05/27 03:41:36;;;;;;;15.07;3.53;;;;;;;12.98;83.86;101458.34;5013513;28;20195;-71
2022/05/27 03:44:02;;;;;;;14.07;2.83;;;;;;;12.98;83.77;101459.19;5032464;28;20528;-71
2022/05/27 03:46:36;;;;;;;14.47;3.57;;;;;;;13.03;83.31;101461.84;5031311;28;20456;-71
2022/05/27 03:49:03;;;;;;;10.93;2.80;;;;;;;13.07;82.89;101458.50;5015907;28;20191;-71
2022/05/27 03:51:34;;;;;;;10.93;3.07;;;;;;;13.04;82.82;101469.59;5011963;28;20194;-71
2022/05/27 03:54:05;;;;;;;11.83;3.03;;;;;;;13.01;82.16;101466.09;5012328;28;20272;-71
2022/05/27 03:56:34;;;;;;;11.67;2.80;;;;;;;13.01;82.33;101472.09;5012017;28;20880;-71
2022/05/27 03:59:01;;;;;;;20.73;3.23;;;;;;;13.03;81.86;101479.84;5012079;28;20206;-71
2022/05/27 04:01:29;;;;;;;11.37;2.87;;;;;;;12.96;81.85;101473.69;5011302;28;20213;-71
2022/05/27 04:03:59;;;;;;;12.10;2.73;;;;;;;13.02;82.55;101473.00;5011756;28;20187;-71
2022/05/27 04:06:25;;;;;;;11.53;2.90;;;;;;;13.00;81.27;101472.94;5021210;28;20275;-71
2022/05/27 04:08:50;;;;;;;11.27;3.10;;;;;;;13.05;81.58;101470.44;4997145;28;20824;-71
2022/05/27 04:11:15;;;;;;;14.40;3.20;;;;;;;13.08;80.70;101471.38;5031835;28;20187;-71
2022/05/27 04:13:41;;;;;;;14.30;2.77;;;;;;;13.08;80.08;101462.81;5031447;28;20210;-71
2022/05/27 04:16:06;;;;;;;12.77;2.90;;;;;;;13.14;79.75;101471.50;5031864;28;20186;-71
2022/05/27 04:18:32;;;;;;;11.70;2.43;;;;;;;13.22;79.80;101469.06;5014096;28;20561;-71
2022/05/27 04:20:57;;;;;;;14.50;3.50;;;;;;;13.28;80.21;101467.50;5031454;28;20562;-71
2022/05/27 04:23:22;;;;;;;13.43;2.53;;;;;;;13.31;78.62;101475.25;5031680;28;20808;-71
2022/05/27 04:25:49;;;;;;;8.93;2.63;;;;;;;13.34;78.21;101470.16;5031037;28;20725;-71
2022/05/27 04:28:15;;;;;;;11.43;2.33;;;;;;;13.38;77.53;101471.97;5031273;28;20186;-71
2022/05/27 04:30:41;;;;;;;10.00;2.33;;;;;;;13.35;77.48;101473.63;5030865;28;20190;-71
2022/05/27 04:33:08;;;;;;;10.90;2.33;;;;;;;13.34;77.38;101471.84;5031347;28;20261;-71
2022/05/27 04:35:33;;;;;;;12.13;2.40;;;;;;;13.30;76.98;101470.09;5031164;28;20194;-71
2022/05/27 04:37:59;;;;;;;11.13;2.50;;;;;;;13.29;76.37;101468.34;5031045;28;20229;-71
2022/05/27 04:40:24;;;;;;;10.90;2.50;;;;;;;13.27;75.87;101470.91;5031304;28;20221;-71
2022/05/27 04:42:49;;;;;;;6.53;2.17;;;;;;;13.26;76.97;101474.28;5030741;28;20186;-71
2022/05/27 04:45:15;;;;;;;10.20;2.87;;;;;;;13.21;76.85;101473.34;5013307;28;20244;-71
2022/05/27 04:47:40;;;;;;;11.37;2.13;;;;;;;13.24;76.36;101467.38;5012882;28;20217;-71
2022/05/27 04:50:08;;;;;;;10.93;2.63;;;;;;;13.24;76.70;101467.38;5030959;28;20182;-71
2022/05/27 04:52:34;;;;;;;9.00;2.20;;;;;;;13.23;76.68;101473.38;5030629;28;20249;-71
2022/05/27 04:55:02;;;;;;;8.97;2.30;;;;;;;13.27;75.92;101463.19;5013170;28;20190;-72
2022/05/27 04:57:31;;;;;;;12.47;2.90;;;;;;;13.41;76.05;101473.72;5030871;28;20206;-71
2022/05/27 04:59:57;;;;;;;11.57;2.77;;;;;;;13.45;75.79;101472.94;5012460;28;20191;-71
2022/05/27 05:02:24;;;;;;;9.53;2.40;;;;;;;13.51;75.96;101470.47;5030895;28;20190;-72
2022/05/27 05:04:51;;;;;;;9.07;2.20;;;;;;;13.57;75.81;101465.41;5030390;28;20186;-72
2022/05/27 05:07:20;;;;;;;8.43;2.20;;;;;;;13.57;73.81;101474.00;5013328;28;20692;-72
2022/05/27 05:09:45;;;;;;;9.20;2.10;;;;;;;13.63;73.16;101468.97;5030102;28;20186;-72
2022/05/27 05:12:12;;;;;;;10.23;2.40;;;;;;;13.71;72.81;101477.69;5011740;28;20687;-71
2022/05/27 05:14:38;;;;;;;5.30;2.00;;;;;;;13.81;72.34;101481.28;5030056;28;20190;-72
2022/05/27 05:17:04;;;;;;;11.77;2.60;;;;;;;13.82;70.97;101478.75;5012640;28;20758;-72
2022/05/27 05:19:29;;;;;;;10.50;2.43;;;;;;;13.84;69.52;101477.06;5030401;28;20278;-72
2022/05/27 05:21:55;;;;;;;5.67;2.17;;;;;;;13.91;69.50;101485.75;5012378;28;20269;-72
2022/05/27 05:24:20;;;;;;;7.43;1.90;;;;;;;13.92;69.03;101474.59;5030496;28;20175;-72
2022/05/27 05:26:46;;;;;;;8.33;2.03;;;;;;;14.00;69.22;101483.31;5029881;28;20749;-72
2022/05/27 05:29:11;;;;;;;8.07;2.27;;;;;;;14.14;69.28;101472.38;5012418;28;20672;-72
2022/05/27 05:31:37;;;;;;;5.67;1.77;;;;;;;14.09;66.62;101479.16;5011999;28;20655;-72
2022/05/27 05:34:03;;;;;;;12.10;2.37;;;;;;;14.02;65.56;101472.19;5030520;28;20194;-72
2022/05/27 05:36:30;;;;;;;7.93;1.97;;;;;;;14.12;65.17;101486.94;5030349;28;20233;-70
2022/05/27 05:38:56;;;;;;;6.37;1.93;;;;;;;14.12;65.03;101486.94;5029718;28;20194;-72
2022/05/27 05:41:30;;;;;;;7.17;1.90;;;;;;;14.38;65.82;101487.34;5030399;28;20277;-72
2022/05/27 05:43:56;;;;;;;6.80;1.63;;;;;;;14.49;65.31;101485.78;5029698;28;20188;-72
2022/05/27 05:46:23;;;;;;;6.30;2.00;;;;;;;14.57;65.02;101487.66;5012379;28;20301;-72
2022/05/27 05:48:49;;;;;;;6.13;2.20;;;;;;;14.48;62.67;101494.38;5011765;28;20269;-72
2022/05/27 05:51:14;;;;;;;6.17;1.70;;;;;;;14.63;63.34;101492.88;5012247;28;20201;-72
2022/05/27 05:53:39;;;;;;;5.60;2.13;;;;;;;14.79;63.40;101494.81;5028815;28;20245;-72
2022/05/27 05:56:05;;;;;;;9.23;2.23;;;;;;;14.75;62.79;101498.19;5012108;28;20225;-72
2022/05/27 05:58:30;;;;;;;8.63;2.03;;;;;;;14.85;62.93;101497.47;5029289;28;20606;-72
2022/05/27 06:00:56;;;;;;;8.73;2.27;;;;;;;15.00;63.04;101497.66;5011669;28;20193;-72
2022/05/27 06:03:21;;;;;;;10.53;2.50;;;;;;;15.20;63.02;101498.72;4998817;28;20177;-72
2022/05/27 06:05:47;;;;;;;9.93;2.30;;;;;;;15.24;61.19;101507.41;5049134;28;20177;-72
2022/05/27 06:08:15;;;;;;;9.37;2.50;;;;;;;15.24;61.12;101507.41;5031556;28;20600;-72
2022/05/27 06:10:40;;;;;;;7.90;2.40;;;;;;;15.18;60.88;101499.56;5049239;28;20607;-73
2022/05/27 06:13:06;;;;;;;6.93;1.77;;;;;;;15.46;60.88;101510.25;5049338;28;20274;-72
2022/05/27 06:15:31;;;;;;;9.27;1.80;;;;;;;15.58;60.82;101506.91;5049474;28;20554;-72
2022/05/27 06:17:59;;;;;;;6.83;1.97;;;;;;;15.66;61.23;101508.72;5048615;28;20229;-72
2022/05/27 06:20:25;;;;;;;8.63;2.07;;;;;;;15.51;61.15;101510.31;5049490;28;20190;-72
2022/05/27 06:22:50;;;;;;;6.83;1.77;;;;;;;15.10;63.17;101514.13;5048978;28;20186;-72
2022/05/27 06:25:16;;;;;;;12.10;2.30;;;;;;;15.26;63.05;101519.47;5049093;28;20273;-72
2022/05/27 06:27:41;;;;;;;9.50;2.63;;;;;;;14.76;64.04;101514.53;5014153;28;20288;-72
2022/05/27 06:35:53;;;;;;;6.97;1.93;;;;;;;15.59;62.37;101513.81;4967022;28;20237;-72
2022/05/27 06:38:18;;;;;;;12.63;2.50;;;;;;;15.94;60.37;101508.09;5014355;28;20670;-72
2022/05/27 06:40:43;;;;;;;6.80;1.97;;;;;;;15.95;61.10;101509.84;5031190;28;20193;-72
2022/05/27 06:43:09;;;;;;;9.80;2.43;;;;;;;15.96;59.50;101506.41;5049146;28;20170;-72
2022/05/27 06:45:34;;;;;;;10.47;2.10;;;;;;;16.21;60.99;101507.47;5030833;28;20201;-72
2022/05/27 06:47:59;;;;;;;11.40;2.27;;;;;;;16.08;61.13;101513.41;5049130;28;20209;-72
2022/05/27 06:50:25;;;;;;;9.20;2.00;;;;;;;16.22;59.28;101497.16;5048826;28;20300;-72
2022/05/27 06:52:50;;;;;;;8.67;2.40;;;;;;;16.30;59.97;101504.94;5049146;28;20213;-72
2022/05/27 06:55:15;;;;;;;6.60;1.87;;;;;;;16.27;60.18;101490.28;5048652;28;20189;-72
2022/05/27 06:57:42;;;;;;;6.97;2.60;;;;;;;15.90;57.79;101501.22;5048930;28;20202;-72
2022/05/27 07:00:10;;;;;;;10.43;2.70;;;;;;;16.33;57.20;101487.72;5048905;28;20200;-72
2022/05/27 07:02:36;;;;;;;11.30;2.43;;;;;;;16.54;57.72;101502.56;5048608;28;20201;-72
2022/05/27 07:05:01;;;;;;;8.27;2.30;;;;;;;16.36;57.51;101500.69;5049099;28;20181;-73
2022/05/27 07:07:30;;;;;;;11.67;2.30;;;;;;;16.48;52.60;101492.19;5048347;28;20710;-72
2022/05/27 07:09:55;;;;;;;7.53;2.30;;;;;;;16.54;52.98;101499.97;5014336;28;20196;-71
2022/05/27 07:12:21;;;;;;;9.87;1.93;;;;;;;16.31;52.90;101491.16;5048292;28;20182;-72
2022/05/27 07:14:46;;;;;;;7.90;2.50;;;;;;;16.58;54.33;101494.81;5048834;28;20341;-72
2022/05/27 07:17:12;;;;;;;11.23;2.50;;;;;;;16.65;53.87;101498.28;5048736;28;20734;-72
2022/05/27 07:19:38;;;;;;;7.17;2.30;;;;;;;16.39;53.91;101498.09;5030730;28;20785;-72
2022/05/27 07:22:08;;;;;;;6.43;2.17;;;;;;;16.50;54.94;101500.78;5048657;28;20193;-72
2022/05/27 07:24:34;;;;;;;8.03;2.10;;;;;;;16.87;53.33;101480.31;5030437;28;20193;-72
2022/05/27 07:26:59;;;;;;;7.87;2.03;;;;;;;16.74;53.01;101490.56;5048607;28;20205;-72
2022/05/27 07:29:24;;;;;;;8.93;2.30;;;;;;;16.53;53.47;101485.31;5030290;28;20190;-72
2022/05/27 07:31:50;;;;;;;6.63;1.93;;;;;;;16.27;51.52;101477.38;5049161;28;20198;-72
2022/05/27 07:34:15;;;;;;;5.33;2.17;;;;;;;15.98;53.02;101478.00;5048129;28;20271;-72
2022/05/27 07:36:41;;;;;;;10.10;1.97;;;;;;;15.73;51.71;101484.69;5051324;28;20210;-72
2022/05/27 07:39:07;;;;;;;8.67;2.00;;;;;;;16.40;51.98;101489.53;5052264;28;20225;-72
2022/05/27 07:41:33;;;;;;;6.63;2.20;;;;;;;16.19;50.67;101479.03;5051717;28;20582;-72
2022/05/27 07:44:01;;;;;;;8.70;2.57;;;;;;;16.20;50.83;101488.50;5052294;28;20178;-72
2022/05/27 07:46:28;;;;;;;5.60;1.90;;;;;;;17.03;50.09;101484.66;5051694;28;20210;-72
2022/05/27 07:48:55;;;;;;;11.17;2.47;;;;;;;16.32;50.31;101488.59;5001865;28;20190;-72
2022/05/27 07:51:21;;;;;;;8.47;2.57;;;;;;;16.03;51.05;101487.50;5031794;28;20195;-72
2022/05/27 07:53:46;;;;;;;9.53;2.23;;;;;;;16.82;50.37;101478.53;5032040;28;20301;-73
2022/05/27 07:56:12;;;;;;;7.53;1.90;;;;;;;16.87;49.89;101476.84;5031983;28;20622;-72
2022/05/27 07:58:37;;;;;;;7.67;2.57;;;;;;;17.03;48.68;101476.91;5031602;28;20194;-72
2022/05/27 08:01:04;;;;;;;6.00;2.00;;;;;;;17.65;49.89;101472.75;5032041;28;20683;-72
2022/05/27 08:03:29;;;;;;;5.60;1.87;;;;;;;17.20;49.22;101475.25;5032115;28;20532;-72
2022/05/27 08:05:58;;;;;;;7.20;2.17;;;;;;;17.61;48.73;101472.75;5032191;28;20197;-72
2022/05/27 08:08:23;;;;;;;8.23;2.30;;;;;;;17.10;48.45;101473.50;5031364;28;20217;-72
2022/05/27 08:10:49;;;;;;;8.70;2.33;;;;;;;16.96;50.00;101480.34;5032148;28;20202;-72
2022/05/27 08:13:15;;;;;;;7.27;1.90;;;;;;;17.22;47.05;101475.25;5031390;28;20715;-72
2022/05/27 08:15:41;;;;;;;6.27;1.90;;;;;;;16.74;47.77;101468.16;5031526;28;20205;-72
2022/05/27 08:18:06;;;;;;;7.73;2.10;;;;;;;16.83;47.60;101472.50;5031296;28;20203;-73
2022/05/27 08:20:34;;;;;;;7.03;1.83;;;;;;;17.09;47.82;101466.56;5031348;28;20213;-71
2022/05/27 08:23:00;;;;;;;10.63;2.10;;;;;;;17.31;48.39;101464.91;4997561;28;20285;-71
2022/05/27 08:25:27;;;;;;;10.60;2.50;;;;;;;18.17;46.79;101463.22;5013372;28;20194;-72
2022/05/27 08:27:54;;;;;;;6.63;2.50;;;;;;;17.93;48.07;101466.72;5031516;28;20672;-72
2022/05/27 08:30:25;;;;;;;8.37;2.23;;;;;;;17.26;48.50;101464.88;5030054;28;20194;-72
2022/05/27 08:32:50;;;;;;;8.20;2.30;;;;;;;16.59;49.25;101481.03;5031337;28;20214;-72
2022/05/27 08:38:05;;;;;;;10.70;2.10;;;;;;;16.85;48.17;101476.00;5011294;28;20225;-72
2022/05/27 08:40:39;;;;;;;7.97;2.47;;;;;;;17.43;46.22;101477.91;5026461;28;20234;-72
2022/05/27 08:43:19;;;;;;;8.20;2.20;;;;;;;17.97;45.91;101467.56;5026086;28;20197;-72
2022/05/27 08:45:58;;;;;;;9.63;2.87;;;;;;;18.40;45.59;101466.66;5012328;28;20679;-72
2022/05/27 08:48:26;;;;;;;6.97;1.90;;;;;;;18.05;45.09;101463.25;5030088;28;20283;-73
2022/05/27 08:51:01;;;;;;;9.83;2.23;;;;;;;18.45;43.69;101472.69;5031013;28;20253;-72
2022/05/27 08:53:26;;;;;;;6.83;2.03;;;;;;;17.87;43.40;101477.06;5028953;28;20237;-71
2022/05/27 09:01:40;;;;;;;6.20;2.10;;;;;;;18.81;41.59;101473.47;5010083;28;20717;-75
2022/05/27 09:04:12;;;;;;;9.90;2.50;;;;;;;18.92;42.99;101474.28;5010857;28;20182;-76
2022/05/27 09:06:44;;;;;;;8.97;2.43;;;;;;;19.15;42.02;101469.81;5011132;28;20298;-75
2022/05/27 09:09:19;;;;;;;8.63;2.13;;;;;;;19.06;41.78;101469.88;4993352;28;20245;-76
2022/05/27 09:12:18;;;;;;;5.43;1.73;;;;;;;18.88;41.19;101484.69;5009464;28;20186;-76
2022/05/27 09:14:50;;;;;;;5.93;2.20;;;;;;;18.86;42.07;101470.84;5011439;28;20536;-75
2022/05/27 09:17:42;;;;;;;9.70;2.40;;;;;;;18.82;42.47;101477.78;5009074;28;20301;-75
2022/05/27 09:20:21;;;;;;;7.77;2.10;;;;;;;18.49;43.54;101471.84;5010896;28;20194;-75
2022/05/27 09:23:04;;;;;;;7.53;2.17;;;;;;;18.56;41.26;101474.41;5010693;28;20779;-75
2022/05/27 09:25:57;;;;;;;7.17;2.07;;;;;;;19.32;40.69;101474.97;5011122;28;20184;-75
2022/05/27 09:28:29;;;;;;;9.63;2.23;;;;;;;18.69;40.88;101472.63;5010355;28;20183;-74
2022/05/27 09:30:58;;;;;;;6.80;1.93;;;;;;;19.30;40.86;101472.38;5011043;28;20199;-75
2022/05/27 09:33:26;;;;;;;8.10;2.40;;;;;;;18.92;41.58;101474.28;5009287;28;20215;-76
2022/05/27 09:36:03;;;;;;;8.67;2.40;;;;;;;18.55;42.98;101474.41;5009994;28;20183;-73
2022/05/27 09:38:32;;;;;;;8.90;2.30;;;;;;;18.00;43.48;101475.38;5006080;28;20662;-73
2022/05/27 09:41:01;;;;;;;9.83;2.70;;;;;;;17.69;44.95;101482.25;5010715;28;20202;-74
2022/05/27 09:43:56;;;;;;;7.67;2.17;;;;;;;17.29;44.88;101508.03;5010930;28;20186;-73
2022/05/27 09:46:26;;;;;;;11.60;2.77;;;;;;;17.14;47.29;101516.63;5033672;28;20217;-73
2022/05/27 09:48:51;;;;;;;8.40;2.50;;;;;;;16.46;49.62;101530.94;5049379;28;20190;-72
2022/05/27 09:51:17;;;;;;;8.23;2.20;;;;;;;17.41;50.53;101528.84;5031060;28;20434;-73
2022/05/27 09:53:48;;;;;;;6.80;2.30;;;;;;;18.04;48.66;101522.00;5049195;28;20210;-73
2022/05/27 09:56:15;;;;;;;8.83;2.00;;;;;;;18.39;47.57;101516.81;5048826;28;20208;-73
2022/05/27 09:58:46;;;;;;;6.90;1.93;;;;;;;18.35;47.70;101508.19;5048693;28;20907;-72
2022/05/27 10:01:28;;;;;;;12.00;2.80;;;;;;;18.65;47.07;101515.88;5048937;28;20269;-73
2022/05/27 10:04:03;;;;;;;6.90;1.90;;;;;;;18.87;46.11;101501.97;5049308;28;20550;-73
2022/05/27 10:06:31;;;;;;;4.23;2.10;;;;;;;18.67;46.15;101502.91;5049233;28;20212;-72
2022/05/27 10:09:02;;;;;;;9.43;2.33;;;;;;;18.91;45.02;101495.91;5048677;28;20194;-73
2022/05/27 10:11:32;;;;;;;10.20;2.80;;;;;;;18.91;44.61;101506.31;5049209;28;20189;-73
2022/05/27 10:14:21;;;;;;;8.73;2.43;;;;;;;19.19;44.25;101507.03;5048592;28;20212;-73
2022/05/27 10:17:01;;;;;;;7.70;2.80;;;;;;;19.19;44.47;101494.91;5049181;28;20209;-73
2022/05/27 10:19:27;;;;;;;9.53;2.80;;;;;;;19.15;43.94;101497.53;5048749;28;20182;-72
2022/05/27 10:21:57;;;;;;;10.50;2.70;;;;;;;19.82;44.10;101485.88;5048881;28;20181;-72
2022/05/27 10:24:41;;;;;;;9.27;2.40;;;;;;;20.36;43.63;101469.78;5048391;28;20173;-72
2022/05/27 10:27:13;;;;;;;11.20;2.53;;;;;;;20.58;43.06;101486.88;5030999;28;20209;-73
2022/05/27 10:29:58;;;;;;;9.77;2.97;;;;;;;19.31;42.94;101481.91;5048738;28;20276;-73
2022/05/27 10:32:34;;;;;;;10.73;2.73;;;;;;;18.44;46.44;101517.66;5044203;28;20660;-73
2022/05/27 10:35:03;;;;;;;7.07;2.30;;;;;;;17.07;55.03;101533.00;5041747;28;20189;-73
2022/05/27 10:37:57;;;;;;;11.33;2.57;;;;;;;16.37;56.03;101548.06;5010634;28;20751;-73
2022/05/27 10:40:36;;;;;;;10.93;2.40;;;;;;;16.18;58.11;101553.97;5009066;28;20217;-72
2022/05/27 10:43:21;;;;;;;8.80;2.40;;;;;;;16.50;57.49;101542.16;5008876;28;20649;-73
2022/05/27 10:45:52;;;;;;;9.77;2.30;;;;;;;17.49;58.12;101533.16;5009093;28;20211;-73
2022/05/27 10:48:26;;;;;;;10.30;2.47;;;;;;;17.32;54.21;101532.22;5007544;28;20183;-72
2022/05/27 10:51:00;;;;;;;6.40;1.77;;;;;;;17.86;54.31;101523.72;5009069;28;20652;-73
2022/05/27 10:54:03;;;;;;;8.67;2.00;;;;;;;17.88;52.85;101517.69;5009376;28;20211;-72
2022/05/27 10:56:39;;;;;;;9.07;2.03;;;;;;;18.13;51.16;101518.53;5015209;28;20622;-72
2022/05/27 11:03:06;;;;;;;10.80;2.47;;;;;;;18.11;52.67;101509.91;5015897;28;20194;-72
2022/05/27 11:05:42;;;;;;;7.27;2.33;;;;;;;18.53;51.18;101502.09;4986168;28;20193;-72
2022/05/27 11:08:21;;;;;;;8.43;2.10;;;;;;;18.97;49.29;101501.06;5028687;28;20209;-72
2022/05/27 11:11:04;;;;;;;9.27;2.53;;;;;;;19.01;48.75;101505.38;5030880;28;20182;-72
2022/05/27 11:16:42;;;;;;;10.07;2.50;;;;;;;18.24;51.13;101528.03;5031835;28;20209;-73
2022/05/27 11:19:30;;;;;;;10.03;2.47;;;;;;;16.58;57.88;101553.44;5031410;28;20189;-72
2022/05/27 11:22:27;;;;;;;7.43;2.47;;;;;;;16.30;64.54;101557.50;5032414;28;20187;-72
2022/05/27 11:25:07;;;;;;;9.93;2.40;;;;;;;16.87;61.37;101532.06;5031699;28;20810;-72
2022/05/27 11:27:58;;;;;;;8.27;2.20;;;;;;;17.57;59.66;101521.09;5032237;28;20206;-72
2022/05/27 11:31:04;;;;;;;4.77;1.63;;;;;;;17.87;59.54;101522.88;5032678;28;20206;-72
2022/05/27 11:33:40;;;;;;;5.70;1.90;;;;;;;18.19;57.16;101523.72;4989716;28;20226;-72
2022/05/27 11:36:32;;;;;;;8.53;2.03;;;;;;;17.75;54.47;101513.34;5028406;28;20582;-72
2022/05/27 11:39:05;;;;;;;10.33;2.30;;;;;;;18.14;53.40;101515.94;5019208;28;20605;-72
2022/05/27 11:42:03;;;;;;;7.13;2.37;;;;;;;18.40;54.06;101524.59;5031168;28;20285;-72
2022/05/27 11:44:38;;;;;;;10.20;2.23;;;;;;;18.88;53.98;101508.06;5022820;28;20260;-72
2022/05/27 11:47:22;;;;;;;7.27;2.00;;;;;;;19.15;51.45;101500.13;5017280;28;20219;-73
2022/05/27 11:49:53;;;;;;;6.50;2.20;;;;;;;19.21;50.02;101500.09;5012376;28;20277;-72
2022/05/27 11:52:43;;;;;;;6.27;2.47;;;;;;;19.18;49.52;101493.19;5012342;28;20191;-72
2022/05/27 11:55:21;;;;;;;8.10;2.30;;;;;;;18.81;49.82;101499.41;5012625;28;20698;-72
2022/05/27 11:58:06;;;;;;;10.63;2.87;;;;;;;18.24;50.24;101506.44;5012064;28;20211;-72
2022/05/27 12:00:38;;;;;;;9.30;2.40;;;;;;;18.26;50.51;101510.75;5012337;28;20270;-72
2022/05/27 12:03:41;;;;;;;8.47;2.60;;;;;;;17.74;51.05;101521.97;5011852;28;20254;-72
2022/05/27 12:06:17;;;;;;;13.00;2.77;;;;;;;17.56;50.76;101523.69;5012014;28;20237;-72
2022/05/27 12:08:55;;;;;;;11.03;2.77;;;;;;;18.47;50.47;101517.69;5011800;28;20187;-72
2022/05/27 12:11:28;;;;;;;9.97;2.30;;;;;;;18.93;48.07;101512.34;5012823;28;20258;-73